Clipper Saga — LAFY6 — position and weather

sailwx.info

Track history (hours):
 
Tides and Currents Weather Stations Pressure Air Temp Water Temp Dewpoint Dewpoint Depression Visibility Wind Speed Wind Dir Waves Ship Positions

Clipper Saga

Last reported at 2016-Jun-29 21:32 UTC. Time now 2016-Jun-29 22:00 UTC.
Position N 53°36' E 000°25'.

Length 89 m; draft 5.9 m.

Type: Ship (hazmat cat C). MMSI: 246657008.

Date/timePositionNaut miles runAvg speedWind from/ knotsBaromVisibWave heightAir tempDewpointWater temp
2016-Jun-29 21:32N 53°36' E 000°25'0 0.1
2016-Jun-29 20:17N 53°36' E 000°25'0 0.0
2016-Jun-29 19:32N 53°36' E 000°25'0 0.0
2016-Jun-29 18:32N 53°36' E 000°25'0 0.0
2016-Jun-29 17:32N 53°36' E 000°25'0 0.0
2016-Jun-29 16:32N 53°36' E 000°25'0 0.0
2016-Jun-29 15:09N 53°36' E 000°25'0 0.0
2016-Jun-29 14:26N 53°36' E 000°25'0 0.0
2016-Jun-29 13:26N 53°36' E 000°25'0 0.0
2016-Jun-29 12:29N 53°36' E 000°25'0 0.2
2016-Jun-29 11:32N 53°36' E 000°25'0 0.0
2016-Jun-29 10:32N 53°36' E 000°25'0 0.0
2016-Jun-29 09:20N 53°36' E 000°25'0 0.1
2016-Jun-29 08:17N 53°36' E 000°25'0 0.0
2016-Jun-29 07:32N 53°36' E 000°25'0 0.0
2016-Jun-29 06:18N 53°36' E 000°25'0 0.0
2016-Jun-29 05:23N 53°36' E 000°25'0 0.0
2016-Jun-29 04:29N 53°36' E 000°25'0 0.0
2016-Jun-29 03:17N 53°36' E 000°25'0 0.0
2016-Jun-29 02:26N 53°36' E 000°25'0 0.1
2016-Jun-29 01:29N 53°36' E 000°25'0 0.0
2016-Jun-29 00:26N 53°36' E 000°25'0 0.0
2016-Jun-28 23:29N 53°36' E 000°25'0 0.0
2016-Jun-28 22:32N 53°36' E 000°25'0 0.0
2016-Jun-28 21:32N 53°36' E 000°25'0 0.0
2016-Jun-28 20:32N 53°36' E 000°25'0 0.1
2016-Jun-28 19:32N 53°36' E 000°25'0 0.0
2016-Jun-28 18:32N 53°36' E 000°25'0 0.0
2016-Jun-28 17:14N 53°36' E 000°25'0 0.0
2016-Jun-28 16:32N 53°36' E 000°25'0 0.0
2016-Jun-28 15:29N 53°36' E 000°25'0 0.0
2016-Jun-28 14:23N 53°36' E 000°25'0 0.0
2016-Jun-28 13:29N 53°36' E 000°25'0 0.1
2016-Jun-28 12:23N 53°36' E 000°25'0 0.1
2016-Jun-28 11:26N 53°36' E 000°25'0 0.0
2016-Jun-28 10:23N 53°36' E 000°25'0 0.0
2016-Jun-28 09:26N 53°36' E 000°25'0 0.0
2016-Jun-28 08:17N 53°36' E 000°25'0 0.0
2016-Jun-28 07:26N 53°36' E 000°25'0 0.1
2016-Jun-28 06:32N 53°36' E 000°25'0 0.0
2016-Jun-28 04:32N 53°36' E 000°25'0 0.0
2016-Jun-28 03:32N 53°36' E 000°25'0 0.0
2016-Jun-28 02:32N 53°36' E 000°25'0 0.0
2016-Jun-28 01:29N 53°36' E 000°25'0 0.1
2016-Jun-28 00:20N 53°36' E 000°25'0 0.0
2016-Jun-27 23:26N 53°36' E 000°25'0 0.0
2016-Jun-27 22:23N 53°36' E 000°25'0 0.0
2016-Jun-27 21:11N 53°36' E 000°25'0 0.0
2016-Jun-27 20:14N 53°36' E 000°25'0 0.0
2016-Jun-27 19:20N 53°36' E 000°25'0 0.0
2016-Jun-27 18:26N 53°36' E 000°25'0 0.0
2016-Jun-27 17:32N 53°36' E 000°25'0 0.1
2016-Jun-27 16:32N 53°36' E 000°25'0 0.0
2016-Jun-27 15:29N 53°36' E 000°25'0 0.0
2016-Jun-27 14:17N 53°36' E 000°25'0 0.0
2016-Jun-27 13:32N 53°36' E 000°25'0 0.1
2016-Jun-27 12:17N 53°36' E 000°25'0 0.0
2016-Jun-27 10:23N 53°36' E 000°25'0 0.0
2016-Jun-27 09:23N 53°36' E 000°25'0 0.0
2016-Jun-27 08:08N 53°36' E 000°25'0 0.0
2016-Jun-27 07:23N 53°36' E 000°25'0 0.1
2016-Jun-27 06:26N 53°36' E 000°25'0 0.0
2016-Jun-27 04:29N 53°36' E 000°25'0 0.1
2016-Jun-27 03:34N 53°36' E 000°25'6 6.1
2016-Jun-27 02:33N 53°42' E 000°22'6 6.1
2016-Jun-27 01:33N 53°48' E 000°22'12 5.7
2016-Jun-26 23:30N 53°60' E 000°21'6 6.0
2016-Jun-26 22:33N 54°05' E 000°19'6 5.7
2016-Jun-26 21:34N 54°11' E 000°18'5 5.4
2016-Jun-26 20:33N 54°16' E 000°16'6 6.2
2016-Jun-26 19:33N 54°22' E 000°13'6 6.4
2016-Jun-26 18:33N 54°28' E 000°10'7 6.9
2016-Jun-26 17:34N 54°35' E 000°08'8 8.0
2016-Jun-26 16:34N 54°43' E 000°04'8 7.7
2016-Jun-26 15:33N 54°50' E 000°01'7 7.5
2016-Jun-26 14:33N 54°58' W 000°02'37 5.0
2016-Jun-26 07:12N 54°29' E 000°37'6 7.3
2016-Jun-26 06:22N 54°23' E 000°36'7 7.8
2016-Jun-26 05:29N 54°16' E 000°35'7 7.1
2016-Jun-26 04:28N 54°09' E 000°35'8 6.4
2016-Jun-26 03:15N 54°01' E 000°31'6 8.0
2016-Jun-26 02:33N 54°01' E 000°22'7 7.0
2016-Jun-26 01:34N 54°08' E 000°24'20 3.9
2016-Jun-25 20:27N 53°49' E 000°35'8 8.7
2016-Jun-25 19:33N 53°43' E 000°27'1110.7
2016-Jun-25 18:34N 53°34' E 000°17'9 9.0
2016-Jun-25 17:34N 53°35' E 000°02'9 8.5
2016-Jun-25 16:32N 53°38' W 000°12'0 0.0
2016-Jun-25 15:32N 53°38' W 000°11'0 0.0
2016-Jun-25 14:23N 53°38' W 000°11'0 0.0
2016-Jun-25 13:26N 53°38' W 000°11'0 0.0
2016-Jun-25 12:29N 53°38' W 000°11'0 0.0
2016-Jun-25 11:29N 53°38' W 000°11'0 0.0
2016-Jun-25 10:30N 53°38' W 000°11'0 0.0
2016-Jun-25 09:14N 53°38' W 000°11'0 0.0
2016-Jun-25 08:29N 53°38' W 000°11'0 0.0
2016-Jun-25 07:20N 53°38' W 000°11'0 0.0
2016-Jun-25 06:20N 53°38' W 000°11'0 0.0
2016-Jun-25 05:33N 53°38' W 000°11'0 0.0
2016-Jun-25 04:32N 53°38' W 000°11'0 0.0
2016-Jun-25 03:32N 53°38' W 000°11'0 0.0
2016-Jun-25 02:26N 53°38' W 000°11'0 0.0
2016-Jun-25 01:29N 53°38' W 000°11'0 0.0
2016-Jun-25 00:30N 53°38' W 000°11'0 0.0
2016-Jun-24 23:32N 53°38' W 000°11'0 0.0
2016-Jun-24 22:32N 53°38' W 000°11'0 0.0
2016-Jun-24 21:32N 53°38' W 000°11'0 0.0
2016-Jun-24 20:32N 53°38' W 000°11'1 0.6
2016-Jun-24 19:33N 53°39' W 000°12'7 7.1
2016-Jun-24 18:34N 53°36' W 000°01'10 9.5
2016-Jun-24 17:33N 53°33' E 000°15'7 5.7
2016-Jun-24 16:25N 53°35' E 000°25'0 0.1
2016-Jun-24 15:25N 53°35' E 000°25'0 0.0
2016-Jun-24 14:28N 53°35' E 000°25'0 0.0
2016-Jun-24 13:22N 53°35' E 000°25'17 9.4
2016-Jun-24 11:33N 53°25' E 000°47'1111.2
2016-Jun-24 10:33N 53°18' E 001°03'1110.1
2016-Jun-24 09:31N 53°10' E 001°15'9 9.5
2016-Jun-24 08:33N 53°04' E 001°25'1010.1
2016-Jun-24 07:33N 52°56' E 001°37'1111.3
2016-Jun-24 06:33N 52°49' E 001°50'6612.1
2016-Jun-24 01:07N 52°13' E 003°21'1011.7
2016-Jun-24 00:16N 52°08' E 003°34'912.0
2016-Jun-23 23:33N 52°04' E 003°47'1111.2
2016-Jun-23 22:33N 51°59' E 004°03'1212.0
2016-Jun-23 21:33N 51°54' E 004°21'1 0.0
2016-Jun-22 22:25N 51°54' E 004°22'1 0.9
2016-Jun-22 21:33N 51°54' E 004°21'8 8.4
2016-Jun-22 20:34N 51°58' E 004°09'10 9.8
2016-Jun-22 19:33N 51°60' E 003°53'7 6.4
2016-Jun-22 18:28N 51°56' E 003°44'0 0.0
2016-Jun-22 17:28N 51°56' E 003°44'0 0.0
2016-Jun-22 16:22N 51°56' E 003°44'0 0.0
2016-Jun-22 15:31N 51°56' E 003°44'0 0.0
2016-Jun-22 14:31N 51°56' E 003°44'0 0.1
2016-Jun-22 13:28N 51°56' E 003°44'0 0.1
2016-Jun-22 12:28N 51°56' E 003°44'0 0.0
2016-Jun-22 11:10N 51°56' E 003°44'0 0.0
2016-Jun-22 09:28N 51°56' E 003°44'0 0.0
2016-Jun-22 08:31N 51°56' E 003°44'0 0.1
2016-Jun-22 07:31N 51°56' E 003°44'0 0.0
2016-Jun-22 06:28N 51°56' E 003°44'0 0.0
2016-Jun-22 04:28N 51°56' E 003°44'0 0.0
2016-Jun-22 03:31N 51°56' E 003°44'0 0.0
2016-Jun-22 02:28N 51°56' E 003°44'0 0.0
2016-Jun-22 01:10N 51°56' E 003°44'0 0.0
2016-Jun-22 00:31N 51°56' E 003°44'0 0.1
2016-Jun-21 23:10N 51°56' E 003°44'0 0.0
2016-Jun-21 22:31N 51°56' E 003°44'0 0.0
2016-Jun-21 21:25N 51°56' E 003°44'0 0.1
2016-Jun-21 20:28N 51°56' E 003°44'0 0.1
2016-Jun-21 19:22N 51°56' E 003°44'0 0.0
2016-Jun-21 18:31N 51°56' E 003°44'0 0.0
2016-Jun-21 17:31N 51°56' E 003°44'0 0.0
2016-Jun-21 15:22N 51°56' E 003°44'0 0.0
2016-Jun-21 14:04N 51°56' E 003°44'0 0.0
2016-Jun-21 13:28N 51°56' E 003°44'0 0.0
2016-Jun-21 12:28N 51°56' E 003°44'0 0.1
2016-Jun-21 11:16N 51°56' E 003°44'0 0.1
2016-Jun-21 10:19N 51°56' E 003°44'0 0.0
2016-Jun-21 09:19N 51°56' E 003°44'0 0.0
2016-Jun-21 08:31N 51°56' E 003°44'0 0.1
2016-Jun-21 07:22N 51°56' E 003°44'0 0.1
2016-Jun-21 06:31N 51°56' E 003°44'0 0.0
2016-Jun-21 04:31N 51°56' E 003°44'0 0.0
2016-Jun-21 03:13N 51°56' E 003°44'0 0.0
2016-Jun-21 01:25N 51°56' E 003°44'0 0.0
2016-Jun-21 00:28N 51°56' E 003°44'0 0.1
2016-Jun-20 23:15N 51°56' E 003°44'11 0.5
2016-Jun-20 01:21N 52°04' E 003°31'910.5
2016-Jun-20 00:32N 52°04' E 003°45'1010.4
2016-Jun-19 23:33N 52°00' E 004°01'1212.3
2016-Jun-19 22:33N 51°54' E 004°18'  
Track history (hours):
 
Tides and Currents Weather Stations Pressure Air Temp Water Temp Dewpoint Dewpoint Depression Visibility Wind Speed Wind Dir Waves Ship Positions

Clipper Saga

Last reported at 2016-Jun-29 21:32 UTC. Time now 2016-Jun-29 22:00 UTC.
Position N 53°36' E 000°25'.

Length 89 m; draft 5.9 m.

Type: Ship (hazmat cat C). MMSI: 246657008.

Date/timePositionNaut miles runAvg speedWind from/ knotsBaromVisibWave heightAir tempDewpointWater temp
2016-Jun-29 21:32N 53°36' E 000°25'0 0.1
2016-Jun-29 20:17N 53°36' E 000°25'0 0.0
2016-Jun-29 19:32N 53°36' E 000°25'0 0.0
2016-Jun-29 18:32N 53°36' E 000°25'0 0.0
2016-Jun-29 17:32N 53°36' E 000°25'0 0.0
2016-Jun-29 16:32N 53°36' E 000°25'0 0.0
2016-Jun-29 15:09N 53°36' E 000°25'0 0.0
2016-Jun-29 14:26N 53°36' E 000°25'0 0.0
2016-Jun-29 13:26N 53°36' E 000°25'0 0.0
2016-Jun-29 12:29N 53°36' E 000°25'0 0.2
2016-Jun-29 11:32N 53°36' E 000°25'0 0.0
2016-Jun-29 10:32N 53°36' E 000°25'0 0.0
2016-Jun-29 09:20N 53°36' E 000°25'0 0.1
2016-Jun-29 08:17N 53°36' E 000°25'0 0.0
2016-Jun-29 07:32N 53°36' E 000°25'0 0.0
2016-Jun-29 06:18N 53°36' E 000°25'0 0.0
2016-Jun-29 05:23N 53°36' E 000°25'0 0.0
2016-Jun-29 04:29N 53°36' E 000°25'0 0.0
2016-Jun-29 03:17N 53°36' E 000°25'0 0.0
2016-Jun-29 02:26N 53°36' E 000°25'0 0.1
2016-Jun-29 01:29N 53°36' E 000°25'0 0.0
2016-Jun-29 00:26N 53°36' E 000°25'0 0.0
2016-Jun-28 23:29N 53°36' E 000°25'0 0.0
2016-Jun-28 22:32N 53°36' E 000°25'0 0.0
2016-Jun-28 21:32N 53°36' E 000°25'0 0.0
2016-Jun-28 20:32N 53°36' E 000°25'0 0.1
2016-Jun-28 19:32N 53°36' E 000°25'0 0.0
2016-Jun-28 18:32N 53°36' E 000°25'0 0.0
2016-Jun-28 17:14N 53°36' E 000°25'0 0.0
2016-Jun-28 16:32N 53°36' E 000°25'0 0.0
2016-Jun-28 15:29N 53°36' E 000°25'0 0.0
2016-Jun-28 14:23N 53°36' E 000°25'0 0.0
2016-Jun-28 13:29N 53°36' E 000°25'0 0.1
2016-Jun-28 12:23N 53°36' E 000°25'0 0.1
2016-Jun-28 11:26N 53°36' E 000°25'0 0.0
2016-Jun-28 10:23N 53°36' E 000°25'0 0.0
2016-Jun-28 09:26N 53°36' E 000°25'0 0.0
2016-Jun-28 08:17N 53°36' E 000°25'0 0.0
2016-Jun-28 07:26N 53°36' E 000°25'0 0.1
2016-Jun-28 06:32N 53°36' E 000°25'0 0.0
2016-Jun-28 04:32N 53°36' E 000°25'0 0.0
2016-Jun-28 03:32N 53°36' E 000°25'0 0.0
2016-Jun-28 02:32N 53°36' E 000°25'0 0.0
2016-Jun-28 01:29N 53°36' E 000°25'0 0.1
2016-Jun-28 00:20N 53°36' E 000°25'0 0.0
2016-Jun-27 23:26N 53°36' E 000°25'0 0.0
2016-Jun-27 22:23N 53°36' E 000°25'0 0.0
2016-Jun-27 21:11N 53°36' E 000°25'0 0.0
2016-Jun-27 20:14N 53°36' E 000°25'0 0.0
2016-Jun-27 19:20N 53°36' E 000°25'0 0.0
2016-Jun-27 18:26N 53°36' E 000°25'0 0.0
2016-Jun-27 17:32N 53°36' E 000°25'0 0.1
2016-Jun-27 16:32N 53°36' E 000°25'0 0.0
2016-Jun-27 15:29N 53°36' E 000°25'0 0.0
2016-Jun-27 14:17N 53°36' E 000°25'0 0.0
2016-Jun-27 13:32N 53°36' E 000°25'0 0.1
2016-Jun-27 12:17N 53°36' E 000°25'0 0.0
2016-Jun-27 10:23N 53°36' E 000°25'0 0.0
2016-Jun-27 09:23N 53°36' E 000°25'0 0.0
2016-Jun-27 08:08N 53°36' E 000°25'0 0.0
2016-Jun-27 07:23N 53°36' E 000°25'0 0.1
2016-Jun-27 06:26N 53°36' E 000°25'0 0.0
2016-Jun-27 04:29N 53°36' E 000°25'0 0.1
2016-Jun-27 03:34N 53°36' E 000°25'6 6.1
2016-Jun-27 02:33N 53°42' E 000°22'6 6.1
2016-Jun-27 01:33N 53°48' E 000°22'12 5.7
2016-Jun-26 23:30N 53°60' E 000°21'6 6.0
2016-Jun-26 22:33N 54°05' E 000°19'6 5.7
2016-Jun-26 21:34N 54°11' E 000°18'5 5.4
2016-Jun-26 20:33N 54°16' E 000°16'6 6.2
2016-Jun-26 19:33N 54°22' E 000°13'6 6.4
2016-Jun-26 18:33N 54°28' E 000°10'7 6.9
2016-Jun-26 17:34N 54°35' E 000°08'8 8.0
2016-Jun-26 16:34N 54°43' E 000°04'8 7.7
2016-Jun-26 15:33N 54°50' E 000°01'7 7.5
2016-Jun-26 14:33N 54°58' W 000°02'37 5.0
2016-Jun-26 07:12N 54°29' E 000°37'6 7.3
2016-Jun-26 06:22N 54°23' E 000°36'7 7.8
2016-Jun-26 05:29N 54°16' E 000°35'7 7.1
2016-Jun-26 04:28N 54°09' E 000°35'8 6.4
2016-Jun-26 03:15N 54°01' E 000°31'6 8.0
2016-Jun-26 02:33N 54°01' E 000°22'7 7.0
2016-Jun-26 01:34N 54°08' E 000°24'20 3.9
2016-Jun-25 20:27N 53°49' E 000°35'8 8.7
2016-Jun-25 19:33N 53°43' E 000°27'1110.7
2016-Jun-25 18:34N 53°34' E 000°17'9 9.0
2016-Jun-25 17:34N 53°35' E 000°02'9 8.5
2016-Jun-25 16:32N 53°38' W 000°12'0 0.0
2016-Jun-25 15:32N 53°38' W 000°11'0 0.0
2016-Jun-25 14:23N 53°38' W 000°11'0 0.0
2016-Jun-25 13:26N 53°38' W 000°11'0 0.0
2016-Jun-25 12:29N 53°38' W 000°11'0 0.0
2016-Jun-25 11:29N 53°38' W 000°11'0 0.0
2016-Jun-25 10:30N 53°38' W 000°11'0 0.0
2016-Jun-25 09:14N 53°38' W 000°11'0 0.0
2016-Jun-25 08:29N 53°38' W 000°11'0 0.0
2016-Jun-25 07:20N 53°38' W 000°11'0 0.0
2016-Jun-25 06:20N 53°38' W 000°11'0 0.0
2016-Jun-25 05:33N 53°38' W 000°11'0 0.0
2016-Jun-25 04:32N 53°38' W 000°11'0 0.0
2016-Jun-25 03:32N 53°38' W 000°11'0 0.0
2016-Jun-25 02:26N 53°38' W 000°11'0 0.0
2016-Jun-25 01:29N 53°38' W 000°11'0 0.0
2016-Jun-25 00:30N 53°38' W 000°11'0 0.0
2016-Jun-24 23:32N 53°38' W 000°11'0 0.0
2016-Jun-24 22:32N 53°38' W 000°11'0 0.0
2016-Jun-24 21:32N 53°38' W 000°11'0 0.0
2016-Jun-24 20:32N 53°38' W 000°11'1 0.6
2016-Jun-24 19:33N 53°39' W 000°12'7 7.1
2016-Jun-24 18:34N 53°36' W 000°01'10 9.5
2016-Jun-24 17:33N 53°33' E 000°15'7 5.7
2016-Jun-24 16:25N 53°35' E 000°25'0 0.1
2016-Jun-24 15:25N 53°35' E 000°25'0 0.0
2016-Jun-24 14:28N 53°35' E 000°25'0 0.0
2016-Jun-24 13:22N 53°35' E 000°25'17 9.4
2016-Jun-24 11:33N 53°25' E 000°47'1111.2
2016-Jun-24 10:33N 53°18' E 001°03'1110.1
2016-Jun-24 09:31N 53°10' E 001°15'9 9.5
2016-Jun-24 08:33N 53°04' E 001°25'1010.1
2016-Jun-24 07:33N 52°56' E 001°37'1111.3
2016-Jun-24 06:33N 52°49' E 001°50'6612.1
2016-Jun-24 01:07N 52°13' E 003°21'1011.7
2016-Jun-24 00:16N 52°08' E 003°34'912.0
2016-Jun-23 23:33N 52°04' E 003°47'1111.2
2016-Jun-23 22:33N 51°59' E 004°03'1212.0
2016-Jun-23 21:33N 51°54' E 004°21'1 0.0
2016-Jun-22 22:25N 51°54' E 004°22'1 0.9
2016-Jun-22 21:33N 51°54' E 004°21'8 8.4
2016-Jun-22 20:34N 51°58' E 004°09'10 9.8
2016-Jun-22 19:33N 51°60' E 003°53'7 6.4
2016-Jun-22 18:28N 51°56' E 003°44'0 0.0
2016-Jun-22 17:28N 51°56' E 003°44'0 0.0
2016-Jun-22 16:22N 51°56' E 003°44'0 0.0
2016-Jun-22 15:31N 51°56' E 003°44'0 0.0
2016-Jun-22 14:31N 51°56' E 003°44'0 0.1
2016-Jun-22 13:28N 51°56' E 003°44'0 0.1
2016-Jun-22 12:28N 51°56' E 003°44'0 0.0
2016-Jun-22 11:10N 51°56' E 003°44'0 0.0
2016-Jun-22 09:28N 51°56' E 003°44'0 0.0
2016-Jun-22 08:31N 51°56' E 003°44'0 0.1
2016-Jun-22 07:31N 51°56' E 003°44'0 0.0
2016-Jun-22 06:28N 51°56' E 003°44'0 0.0
2016-Jun-22 04:28N 51°56' E 003°44'0 0.0
2016-Jun-22 03:31N 51°56' E 003°44'0 0.0
2016-Jun-22 02:28N 51°56' E 003°44'0 0.0
2016-Jun-22 01:10N 51°56' E 003°44'0 0.0
2016-Jun-22 00:31N 51°56' E 003°44'0 0.1
2016-Jun-21 23:10N 51°56' E 003°44'0 0.0
2016-Jun-21 22:31N 51°56' E 003°44'0 0.0
2016-Jun-21 21:25N 51°56' E 003°44'0 0.1
2016-Jun-21 20:28N 51°56' E 003°44'0 0.1
2016-Jun-21 19:22N 51°56' E 003°44'0 0.0
2016-Jun-21 18:31N 51°56' E 003°44'0 0.0
2016-Jun-21 17:31N 51°56' E 003°44'0 0.0
2016-Jun-21 15:22N 51°56' E 003°44'0 0.0
2016-Jun-21 14:04N 51°56' E 003°44'0 0.0
2016-Jun-21 13:28N 51°56' E 003°44'0 0.0
2016-Jun-21 12:28N 51°56' E 003°44'0 0.1
2016-Jun-21 11:16N 51°56' E 003°44'0 0.1
2016-Jun-21 10:19N 51°56' E 003°44'0 0.0
2016-Jun-21 09:19N 51°56' E 003°44'0 0.0
2016-Jun-21 08:31N 51°56' E 003°44'0 0.1
2016-Jun-21 07:22N 51°56' E 003°44'0 0.1
2016-Jun-21 06:31N 51°56' E 003°44'0 0.0
2016-Jun-21 04:31N 51°56' E 003°44'0 0.0
2016-Jun-21 03:13N 51°56' E 003°44'0 0.0
2016-Jun-21 01:25N 51°56' E 003°44'0 0.0
2016-Jun-21 00:28N 51°56' E 003°44'0 0.1
2016-Jun-20 23:15N 51°56' E 003°44'11 0.5
2016-Jun-20 01:21N 52°04' E 003°31'910.5
2016-Jun-20 00:32N 52°04' E 003°45'1010.4
2016-Jun-19 23:33N 52°00' E 004°01'1212.3
2016-Jun-19 22:33N 51°54' E 004°18'  

Dump ship's entire track history